Time;durP1;ratioP1;P1;durP2;ratioP2;P2;SDS_P1;SDS_P2;PMS_P1;PMS_P2;Temp;Humidity;BMP_temperature;BMP_pressure;BME280_temperature;BME280_humidity;BME280_pressure;Samples;Min_cycle;Max_cycle;Signal;HPM_P1;HPM_P2
2023/03/05 00:02:20;;;;;;;0.00;0.00;;;;;;;4.30;100.00;102033.41;10399648;28;20499;-79
2023/03/05 00:07:22;;;;;;;0.00;0.00;;;;;;;4.38;100.00;102011.88;10427241;28;20033;-79
2023/03/05 00:12:24;;;;;;;0.70;0.50;;;;;;;4.37;100.00;102010.09;10403767;28;20119;-78
2023/03/05 00:17:26;;;;;;;0.00;0.00;;;;;;;4.35;100.00;101996.34;10399859;28;20069;-79
2023/03/05 00:22:27;;;;;;;0.00;0.00;;;;;;;4.31;100.00;102001.13;10403600;28;20050;-79
2023/03/05 00:27:29;;;;;;;0.00;0.00;;;;;;;4.28;100.00;101999.28;10406861;28;20061;-78
2023/03/05 00:32:30;;;;;;;0.00;0.00;;;;;;;4.11;100.00;101988.78;10407111;28;20053;-78
2023/03/05 00:37:32;;;;;;;0.00;0.00;;;;;;;4.20;100.00;101980.00;10402094;28;20128;-78
2023/03/05 00:42:37;;;;;;;0.30;0.20;;;;;;;4.24;100.00;101971.75;10407158;28;20157;-79
2023/03/05 00:47:39;;;;;;;0.08;0.08;;;;;;;4.18;100.00;101972.22;10407524;28;20044;-78
2023/03/05 00:52:40;;;;;;;0.00;0.00;;;;;;;4.13;100.00;101969.34;10405805;28;20041;-78
2023/03/05 00:57:42;;;;;;;0.15;0.15;;;;;;;4.20;100.00;101964.69;10386020;28;20045;-78
2023/03/05 01:02:44;;;;;;;0.70;0.25;;;;;;;4.24;100.00;101961.56;10405301;28;20057;-78
2023/03/05 01:07:46;;;;;;;0.22;0.22;;;;;;;4.08;100.00;101940.09;10400553;28;20100;-77
2023/03/05 01:12:48;;;;;;;0.00;0.00;;;;;;;4.13;100.00;101941.28;10406285;28;20382;-78
2023/03/05 01:17:50;;;;;;;0.00;0.00;;;;;;;4.28;100.00;101935.50;10406295;28;20045;-79
2023/03/05 01:22:52;;;;;;;0.28;0.28;;;;;;;4.18;100.00;101936.50;10406346;28;20049;-78
2023/03/05 01:27:54;;;;;;;0.00;0.00;;;;;;;4.14;100.00;101924.34;10406146;28;20425;-79
2023/03/05 01:32:56;;;;;;;0.17;0.17;;;;;;;4.21;100.00;101925.63;10408076;28;20052;-78
2023/03/05 01:37:57;;;;;;;0.00;0.00;;;;;;;4.19;100.00;101917.00;10406181;28;20144;-78
2023/03/05 01:43:18;;;;;;;0.00;0.00;;;;;;;4.18;100.00;101920.31;10398019;28;20045;-78
2023/03/05 01:48:20;;;;;;;0.00;0.00;;;;;;;4.09;100.00;101911.25;10402421;28;20045;-78
2023/03/05 01:53:22;;;;;;;0.30;0.30;;;;;;;4.12;100.00;101895.28;10420975;28;20438;-78
2023/03/05 01:58:24;;;;;;;0.00;0.00;;;;;;;4.08;100.00;101891.63;10405194;28;20045;-78
2023/03/05 02:03:26;;;;;;;0.00;0.00;;;;;;;4.17;100.00;101895.59;10412054;28;20052;-78
2023/03/05 02:08:27;;;;;;;0.40;0.40;;;;;;;4.10;100.00;101890.09;10437800;28;20053;-79
2023/03/05 02:13:32;;;;;;;0.00;0.00;;;;;;;4.01;100.00;101884.34;10413693;28;20328;-78
2023/03/05 02:18:36;;;;;;;0.00;0.00;;;;;;;3.98;100.00;101863.75;10412514;28;20099;-78
2023/03/05 02:23:39;;;;;;;0.00;0.00;;;;;;;3.87;100.00;101854.47;10413367;28;20241;-78
2023/03/05 02:28:52;;;;;;;0.00;0.00;;;;;;;4.12;100.00;101855.38;10411962;28;20069;-78
2023/03/05 02:33:56;;;;;;;0.00;0.00;;;;;;;4.10;100.00;101856.03;10409445;28;20041;-78
2023/03/05 02:38:59;;;;;;;0.05;0.05;;;;;;;4.12;100.00;101857.03;10410473;28;20080;-78
2023/03/05 02:44:01;;;;;;;0.00;0.00;;;;;;;3.99;100.00;101847.66;10411049;28;20049;-78
2023/03/05 02:49:03;;;;;;;0.20;0.20;;;;;;;4.09;100.00;101839.84;10404462;28;20524;-78
2023/03/05 02:54:06;;;;;;;0.00;0.00;;;;;;;4.01;100.00;101835.91;10394195;28;20435;-79
2023/03/05 02:59:08;;;;;;;0.00;0.00;;;;;;;4.06;100.00;101828.56;10411316;28;20045;-78
2023/03/05 03:04:09;;;;;;;0.00;0.00;;;;;;;3.93;100.00;101819.19;10409493;28;20045;-79
2023/03/05 03:09:11;;;;;;;0.10;0.10;;;;;;;3.88;100.00;101797.63;10409664;28;20134;-78
2023/03/05 03:14:13;;;;;;;0.00;0.00;;;;;;;3.89;100.00;101791.75;10410350;28;20045;-78
2023/03/05 03:19:14;;;;;;;0.00;0.00;;;;;;;3.94;100.00;101775.06;10409056;28;20042;-78
2023/03/05 03:24:19;;;;;;;0.55;0.55;;;;;;;3.90;100.00;101755.28;10410225;28;20037;-79
2023/03/05 03:29:21;;;;;;;0.10;0.10;;;;;;;3.85;100.00;101749.84;10392586;28;20207;-78
2023/03/05 03:34:23;;;;;;;0.00;0.00;;;;;;;4.11;100.00;101741.38;10406715;28;20041;-79
2023/03/05 03:39:24;;;;;;;3.40;0.38;;;;;;;4.04;100.00;101733.22;10405832;28;20054;-78
2023/03/05 03:44:26;;;;;;;0.00;0.00;;;;;;;3.95;100.00;101728.41;10405907;28;20102;-77
2023/03/05 03:49:28;;;;;;;0.00;0.00;;;;;;;3.79;100.00;101717.19;10405670;28;20140;-78
2023/03/05 03:54:29;;;;;;;0.00;0.00;;;;;;;3.79;100.00;101696.78;10408667;28;20049;-78
2023/03/05 03:59:31;;;;;;;0.00;0.00;;;;;;;3.88;100.00;101688.88;10407916;28;20081;-79
2023/03/05 04:04:33;;;;;;;0.00;0.00;;;;;;;3.71;100.00;101682.66;10402734;28;20160;-78
2023/03/05 04:09:34;;;;;;;0.00;0.00;;;;;;;3.76;100.00;101681.28;10407491;28;20038;-78
2023/03/05 04:14:36;;;;;;;0.00;0.00;;;;;;;3.85;100.00;101668.28;10400461;28;20079;-79
2023/03/05 04:19:38;;;;;;;0.10;0.10;;;;;;;3.74;100.00;101654.84;10406931;28;20151;-78
2023/03/05 04:24:40;;;;;;;0.00;0.00;;;;;;;3.89;100.00;101659.16;10407641;28;20045;-78
2023/03/05 04:29:42;;;;;;;0.00;0.00;;;;;;;3.79;100.00;101660.25;10406301;28;20091;-79
2023/03/05 04:34:44;;;;;;;0.00;0.00;;;;;;;3.88;100.00;101659.94;10401144;28;20319;-78
2023/03/05 04:39:45;;;;;;;0.17;0.17;;;;;;;3.69;100.00;101648.53;10407655;28;20104;-79
2023/03/05 04:44:48;;;;;;;0.00;0.00;;;;;;;3.76;100.00;101645.59;10421022;28;20041;-79
2023/03/05 04:49:50;;;;;;;0.00;0.00;;;;;;;3.80;100.00;101652.69;10416231;28;20045;-78
2023/03/05 04:54:53;;;;;;;0.00;0.00;;;;;;;3.81;100.00;101649.34;10406914;28;20060;-78
2023/03/05 04:59:55;;;;;;;0.00;0.00;;;;;;;3.84;100.00;101640.13;10397269;28;20128;-79
2023/03/05 05:04:56;;;;;;;0.00;0.00;;;;;;;3.77;100.00;101637.19;10388037;28;20053;-78
2023/03/05 05:09:58;;;;;;;0.00;0.00;;;;;;;3.77;100.00;101634.63;10406396;28;20085;-78
2023/03/05 05:14:59;;;;;;;0.10;0.10;;;;;;;3.88;100.00;101642.09;10400753;28;20080;-79
2023/03/05 05:20:07;;;;;;;1.13;0.30;;;;;;;3.94;100.00;101643.41;10405154;28;20058;-79
2023/03/05 05:25:09;;;;;;;0.43;0.10;;;;;;;3.74;100.00;101633.53;10405853;28;20551;-79
2023/03/05 05:30:11;;;;;;;0.00;0.00;;;;;;;3.85;100.00;101631.69;10406019;28;20417;-79
2023/03/05 05:35:13;;;;;;;0.00;0.00;;;;;;;3.85;100.00;101631.69;10407634;28;20041;-78
2023/03/05 05:40:14;;;;;;;0.00;0.00;;;;;;;3.83;100.00;101630.72;10414023;28;20037;-78
2023/03/05 05:45:16;;;;;;;0.00;0.00;;;;;;;3.87;100.00;101623.34;10414245;28;20127;-79
2023/03/05 05:50:19;;;;;;;0.00;0.00;;;;;;;3.85;100.00;101619.84;10410057;28;20397;-79
2023/03/05 05:55:20;;;;;;;0.00;0.00;;;;;;;3.68;100.00;101611.13;10412612;28;20077;-79
2023/03/05 06:00:22;;;;;;;0.32;0.08;;;;;;;3.82;100.00;101612.00;10408600;28;20053;-78
2023/03/05 06:05:24;;;;;;;0.15;0.15;;;;;;;3.89;100.00;101615.84;10407982;28;20107;-78
2023/03/05 06:10:26;;;;;;;0.15;0.15;;;;;;;3.84;100.00;101606.97;10409160;28;20145;-79
2023/03/05 06:15:27;;;;;;;0.22;0.22;;;;;;;3.92;100.00;101605.81;10413077;28;20076;-79
2023/03/05 06:20:29;;;;;;;5.78;0.32;;;;;;;3.94;100.00;101609.34;10411918;28;20104;-79
2023/03/05 06:25:31;;;;;;;0.10;0.10;;;;;;;3.97;100.00;101628.28;10399625;28;20599;-79
2023/03/05 06:30:32;;;;;;;0.03;0.00;;;;;;;4.06;100.00;101630.53;10395200;28;20049;-81
2023/03/05 06:35:37;;;;;;;0.08;0.08;;;;;;;4.02;100.00;101623.47;10411963;28;20056;-80
2023/03/05 06:40:38;;;;;;;0.10;0.10;;;;;;;4.04;100.00;101621.03;10410995;28;20115;-80
2023/03/05 06:45:41;;;;;;;4.82;0.35;;;;;;;4.03;100.00;101616.69;10427893;28;20049;-80
2023/03/05 06:50:42;;;;;;;0.30;0.30;;;;;;;4.07;100.00;101619.53;10407146;28;20049;-81
2023/03/05 06:55:44;;;;;;;0.00;0.00;;;;;;;4.19;100.00;101616.03;10419647;28;20508;-80
2023/03/05 07:00:46;;;;;;;0.00;0.00;;;;;;;4.38;100.00;101618.06;10411967;28;20507;-80
2023/03/05 07:05:48;;;;;;;0.10;0.10;;;;;;;4.48;100.00;101619.53;10423534;28;20401;-80
2023/03/05 07:10:53;;;;;;;0.10;0.10;;;;;;;4.37;100.00;101618.84;10424697;28;20049;-80
2023/03/05 07:15:54;;;;;;;0.00;0.00;;;;;;;4.23;100.00;101617.97;10411389;28;20381;-80
2023/03/05 07:21:01;;;;;;;0.10;0.10;;;;;;;4.47;100.00;101602.44;10407326;28;20551;-80
2023/03/05 07:26:04;;;;;;;0.00;0.00;;;;;;;4.20;100.00;101610.16;10408711;28;20041;-80
2023/03/05 07:31:11;;;;;;;0.05;0.05;;;;;;;4.26;100.00;101582.47;10400516;28;20420;-81
2023/03/05 07:36:13;;;;;;;0.57;0.30;;;;;;;4.16;100.00;101575.00;10404777;28;20484;-81
2023/03/05 07:41:22;;;;;;;0.00;0.00;;;;;;;3.68;100.00;101554.16;10391584;28;20484;-81
2023/03/05 07:46:28;;;;;;;0.00;0.00;;;;;;;4.21;100.00;101522.59;10403153;28;20044;-81
2023/03/05 07:51:30;;;;;;;0.05;0.05;;;;;;;4.34;100.00;101530.25;10405029;28;20037;-81
2023/03/05 07:56:34;;;;;;;0.00;0.00;;;;;;;4.35;100.00;101532.03;10407593;28;20103;-81
2023/03/05 08:01:36;;;;;;;0.40;0.40;;;;;;;4.72;100.00;101508.72;10407538;28;20124;-81
2023/03/05 08:06:40;;;;;;;0.50;0.35;;;;;;;4.79;100.00;101534.63;10391272;28;20053;-81
2023/03/05 08:11:42;;;;;;;0.10;0.10;;;;;;;4.85;100.00;101524.75;10407924;28;20115;-81
2023/03/05 08:16:43;;;;;;;0.00;0.00;;;;;;;4.76;100.00;101525.09;10408778;28;20050;-81
2023/03/05 08:21:48;;;;;;;0.10;0.10;;;;;;;5.21;100.00;101530.25;10408629;28;20401;-81
2023/03/05 08:26:56;;;;;;;0.00;0.00;;;;;;;4.89;100.00;101549.66;10405424;28;20087;-80
2023/03/05 08:31:58;;;;;;;0.00;0.00;;;;;;;4.94;100.00;101545.72;10422985;28;20114;-80
2023/03/05 08:37:00;;;;;;;0.10;0.05;;;;;;;5.32;100.00;101551.31;10405430;28;20048;-82
2023/03/05 08:42:02;;;;;;;0.10;0.10;;;;;;;5.39;100.00;101562.00;10418375;28;20055;-80
2023/03/05 08:47:04;;;;;;;0.20;0.20;;;;;;;5.48;100.00;101571.84;10406202;28;20087;-80
2023/03/05 08:52:06;;;;;;;0.22;0.20;;;;;;;5.45;100.00;101575.91;10411006;28;20049;-80
2023/03/05 08:57:08;;;;;;;0.13;0.13;;;;;;;5.34;100.00;101568.47;10426356;28;20038;-79
2023/03/05 09:02:12;;;;;;;0.00;0.00;;;;;;;5.71;100.00;101565.47;10422721;28;20402;-80
2023/03/05 09:07:13;;;;;;;0.22;0.10;;;;;;;5.58;100.00;101562.16;10425905;28;20037;-80
2023/03/05 09:12:15;;;;;;;0.00;0.00;;;;;;;5.78;100.00;101555.59;10419898;28;20049;-80
2023/03/05 09:17:19;;;;;;;0.00;0.00;;;;;;;5.78;100.00;101570.94;10416761;28;20052;-81
2023/03/05 09:22:21;;;;;;;0.10;0.10;;;;;;;5.95;100.00;101571.88;10398637;28;20556;-81
2023/03/05 09:27:23;;;;;;;0.20;0.20;;;;;;;5.71;100.00;101591.03;10419297;28;20038;-79
2023/03/05 09:32:24;;;;;;;0.32;0.32;;;;;;;5.69;100.00;101592.66;10412287;28;20143;-80
2023/03/05 09:37:28;;;;;;;0.00;0.00;;;;;;;6.57;100.00;101596.59;10413165;28;20049;-80
2023/03/05 09:42:42;;;;;;;0.35;0.32;;;;;;;7.61;100.00;101618.13;10413298;28;20163;-81
2023/03/05 09:47:53;;;;;;;0.45;0.38;;;;;;;7.86;100.00;101619.31;10408782;28;20386;-80
2023/03/05 09:53:01;;;;;;;0.17;0.05;;;;;;;7.83;100.00;101649.97;10412910;28;20041;-81
2023/03/05 09:58:10;;;;;;;0.08;0.08;;;;;;;6.78;100.00;101666.00;10429497;28;20501;-81
2023/03/05 10:03:18;;;;;;;0.00;0.00;;;;;;;6.59;100.00;101668.38;10412619;28;20065;-80
2023/03/05 10:08:27;;;;;;;0.00;0.00;;;;;;;7.17;100.00;101673.16;10429667;28;20048;-81
2023/03/05 10:13:35;;;;;;;0.03;0.00;;;;;;;7.67;100.00;101683.34;10421984;28;20073;-81
2023/03/05 10:18:52;;;;;;;0.00;0.00;;;;;;;7.67;100.00;101680.78;10411325;28;20045;-80
2023/03/05 10:24:18;;;;;;;0.00;0.00;;;;;;;7.84;100.00;101676.50;10413560;28;20131;-81
2023/03/05 10:29:19;;;;;;;0.00;0.00;;;;;;;9.48;100.00;101679.78;10395769;28;20503;-81
2023/03/05 10:34:39;;;;;;;0.00;0.00;;;;;;;8.30;100.00;101672.72;10402729;28;20053;-81
2023/03/05 10:39:58;;;;;;;0.00;0.00;;;;;;;7.87;100.00;101668.97;10426011;28;20409;-81
2023/03/05 10:45:11;;;;;;;0.00;0.00;;;;;;;7.39;100.00;101669.16;10406805;28;20471;-80
2023/03/05 10:50:20;;;;;;;0.00;0.00;;;;;;;7.91;100.00;101668.28;10407961;28;20052;-81
2023/03/05 10:55:22;;;;;;;0.00;0.00;;;;;;;8.01;100.00;101659.34;10406378;28;20087;-81
2023/03/05 11:00:31;;;;;;;0.03;0.03;;;;;;;8.57;100.00;101644.91;10411709;28;20091;-81
2023/03/05 11:05:46;;;;;;;0.15;0.15;;;;;;;8.85;100.00;101649.63;10409047;28;20041;-81
2023/03/05 11:11:02;;;;;;;0.10;0.10;;;;;;;8.20;100.00;101641.50;10403253;28;20045;-80
2023/03/05 11:16:06;;;;;;;0.00;0.00;;;;;;;8.42;100.00;101638.22;10410614;28;20492;-81
2023/03/05 11:21:10;;;;;;;0.00;0.00;;;;;;;8.38;100.00;101625.16;10410670;28;20076;-81
2023/03/05 11:26:12;;;;;;;0.00;0.00;;;;;;;8.60;100.00;101618.50;10407439;28;20042;-80
2023/03/05 11:31:17;;;;;;;0.08;0.08;;;;;;;8.29;100.00;101611.94;10425671;28;20045;-81
2023/03/05 11:36:37;;;;;;;0.00;0.00;;;;;;;9.27;100.00;101601.72;10402566;28;20068;-82
2023/03/05 11:41:51;;;;;;;0.00;0.00;;;;;;;8.82;100.00;101592.97;10410999;28;20038;-81
2023/03/05 11:47:01;;;;;;;0.00;0.00;;;;;;;8.32;100.00;101599.22;10405892;28;20531;-80
2023/03/05 11:52:15;;;;;;;0.00;0.00;;;;;;;8.47;100.00;101589.69;10419025;28;20049;-80
2023/03/05 11:57:18;;;;;;;0.00;0.00;;;;;;;9.12;100.00;101579.66;10410328;28;20080;-81
2023/03/05 12:02:26;;;;;;;0.00;0.00;;;;;;;8.51;100.00;101571.06;10409093;28;20493;-81
2023/03/05 12:07:36;;;;;;;0.00;0.00;;;;;;;8.32;100.00;101568.41;10411751;28;20042;-77
2023/03/05 12:12:50;;;;;;;0.00;0.00;;;;;;;8.21;100.00;101555.97;10419050;28;20553;-77
2023/03/05 12:18:08;;;;;;;0.00;0.00;;;;;;;8.26;100.00;101554.50;10398005;28;20075;-77
2023/03/05 12:23:16;;;;;;;0.00;0.00;;;;;;;8.31;100.00;101541.88;10414642;28;20088;-78
2023/03/05 12:28:30;;;;;;;0.22;0.22;;;;;;;7.91;100.00;101543.47;10390892;28;20511;-78
2023/03/05 12:33:40;;;;;;;0.10;0.10;;;;;;;7.55;100.00;101535.78;10408091;28;20061;-78
2023/03/05 12:38:53;;;;;;;0.00;0.00;;;;;;;7.10;100.00;101525.03;10410734;28;20049;-75
2023/03/05 12:44:03;;;;;;;0.00;0.00;;;;;;;6.83;100.00;101525.38;10400238;28;20409;-75
2023/03/05 12:49:25;;;;;;;0.00;0.00;;;;;;;6.28;100.00;101513.13;10404469;28;20046;-75
2023/03/05 12:54:38;;;;;;;0.00;0.00;;;;;;;6.70;100.00;101499.94;10411111;28;20052;-75
2023/03/05 12:59:45;;;;;;;0.00;0.00;;;;;;;6.46;100.00;101493.66;10386107;28;20052;-74
2023/03/05 13:04:47;;;;;;;0.00;0.00;;;;;;;6.73;100.00;101477.94;10408195;28;20053;-75
2023/03/05 13:09:57;;;;;;;0.25;0.10;;;;;;;6.85;100.00;101474.25;10385878;28;20045;-76
2023/03/05 13:14:58;;;;;;;0.00;0.00;;;;;;;7.45;100.00;101464.34;10409410;28;20053;-75
2023/03/05 13:20:21;;;;;;;0.00;0.00;;;;;;;8.03;100.00;101452.47;10409468;28;20053;-75
2023/03/05 13:25:22;;;;;;;0.00;0.00;;;;;;;7.18;100.00;101458.75;10384702;28;20050;-75
2023/03/05 13:30:27;;;;;;;0.13;0.10;;;;;;;7.09;100.00;101449.81;10402858;28;20046;-77
2023/03/05 13:35:33;;;;;;;0.00;0.00;;;;;;;6.81;100.00;101445.03;10405719;28;20042;-76
2023/03/05 13:40:35;;;;;;;0.00;0.00;;;;;;;7.13;100.00;101440.59;10408050;28;20045;-76
2023/03/05 13:45:36;;;;;;;0.00;0.00;;;;;;;7.41;100.00;101436.81;10408747;28;20046;-76
2023/03/05 13:50:39;;;;;;;0.00;0.00;;;;;;;7.65;100.00;101431.06;10396446;28;20516;-76
2023/03/05 13:55:41;;;;;;;6.80;0.10;;;;;;;7.31;100.00;101427.78;10395409;28;20451;-76
2023/03/05 14:00:43;;;;;;;0.00;0.00;;;;;;;7.42;100.00;101412.91;10396934;28;20111;-76
2023/03/05 14:05:46;;;;;;;0.20;0.13;;;;;;;7.37;100.00;101411.81;10408962;28;20041;-76
2023/03/05 14:10:50;;;;;;;0.00;0.00;;;;;;;8.03;100.00;101396.00;10415197;28;20053;-76
2023/03/05 14:16:10;;;;;;;0.28;0.22;;;;;;;8.78;100.00;101395.81;10415936;28;20052;-76
2023/03/05 14:21:11;;;;;;;0.00;0.00;;;;;;;8.41;100.00;101384.81;10412157;28;20107;-76
2023/03/05 14:26:19;;;;;;;0.00;0.00;;;;;;;8.01;100.00;101379.66;10405491;28;20049;-75
2023/03/05 14:31:21;;;;;;;0.28;0.10;;;;;;;8.37;100.00;101367.53;10419724;28;20060;-76
2023/03/05 14:36:27;;;;;;;0.00;0.00;;;;;;;8.71;100.00;101357.81;10411038;28;20042;-75
2023/03/05 14:41:39;;;;;;;0.00;0.00;;;;;;;7.55;100.00;101360.53;10414895;28;20631;-76
2023/03/05 14:46:42;;;;;;;0.00;0.00;;;;;;;8.02;100.00;101353.19;10409042;28;20056;-75
2023/03/05 14:51:45;;;;;;;0.00;0.00;;;;;;;7.81;100.00;101343.75;10411709;28;20508;-76
2023/03/05 14:56:48;;;;;;;0.00;0.00;;;;;;;7.42;100.00;101333.44;10399658;28;20081;-75
2023/03/05 15:01:50;;;;;;;0.00;0.00;;;;;;;7.42;100.00;101331.78;10415011;28;20543;-75
2023/03/05 15:06:52;;;;;;;0.00;0.00;;;;;;;7.54;100.00;101328.00;10377413;28;20042;-75
2023/03/05 15:11:53;;;;;;;0.00;0.00;;;;;;;7.21;100.00;101318.84;10390468;28;20119;-76
2023/03/05 15:16:55;;;;;;;0.00;0.00;;;;;;;7.58;100.00;101315.38;10414675;28;20041;-76
2023/03/05 15:21:57;;;;;;;1.08;0.17;;;;;;;7.41;100.00;101306.94;10415898;28;20128;-76
2023/03/05 15:26:58;;;;;;;0.00;0.00;;;;;;;7.55;100.00;101299.00;10414468;28;20042;-76
2023/03/05 15:32:01;;;;;;;0.00;0.00;;;;;;;8.06;100.00;101298.63;10407953;28;20517;-76
2023/03/05 15:37:03;;;;;;;0.10;0.10;;;;;;;7.90;100.00;101292.84;10413607;28;20050;-76
2023/03/05 15:42:05;;;;;;;0.00;0.00;;;;;;;7.35;100.00;101285.28;10405077;28;20076;-76
2023/03/05 15:47:07;;;;;;;0.00;0.00;;;;;;;7.22;100.00;101273.59;10413607;28;20084;-75
2023/03/05 15:52:08;;;;;;;0.00;0.00;;;;;;;7.20;100.00;101270.09;10403404;28;20050;-76
2023/03/05 15:57:11;;;;;;;0.00;0.00;;;;;;;6.98;100.00;101267.41;10413228;28;20046;-76
2023/03/05 16:02:13;;;;;;;0.00;0.00;;;;;;;7.11;100.00;101261.16;10427244;28;20041;-75
2023/03/05 16:07:15;;;;;;;0.00;0.00;;;;;;;7.23;100.00;101250.59;10397298;28;20045;-75
2023/03/05 16:12:21;;;;;;;0.00;0.00;;;;;;;7.35;100.00;101239.13;10409601;28;20038;-76
2023/03/05 16:17:23;;;;;;;0.00;0.00;;;;;;;6.90;100.00;101240.56;10389937;28;20097;-76
2023/03/05 16:22:25;;;;;;;0.00;0.00;;;;;;;6.76;100.00;101242.50;10410927;28;20056;-76
2023/03/05 16:27:28;;;;;;;0.00;0.00;;;;;;;6.94;100.00;101229.66;10412813;28;20050;-76
2023/03/05 16:32:29;;;;;;;0.00;0.00;;;;;;;7.04;100.00;101227.50;10402366;28;20485;-76
2023/03/05 16:37:31;;;;;;;0.00;0.00;;;;;;;6.59;100.00;101217.78;10427158;28;20053;-75
2023/03/05 16:42:33;;;;;;;0.00;0.00;;;;;;;6.37;100.00;101210.78;10400315;28;20054;-75
2023/03/05 16:47:35;;;;;;;0.00;0.00;;;;;;;6.40;100.00;101211.78;10413426;28;20045;-76
2023/03/05 16:52:37;;;;;;;0.00;0.00;;;;;;;6.33;100.00;101205.50;10408346;28;20049;-75
2023/03/05 16:57:39;;;;;;;0.17;0.17;;;;;;;6.25;100.00;101198.25;10416471;28;20041;-75
2023/03/05 17:02:40;;;;;;;0.00;0.00;;;;;;;6.05;100.00;101199.84;10401935;28;20041;-75
2023/03/05 17:07:44;;;;;;;0.00;0.00;;;;;;;5.77;100.00;101190.78;10386605;28;20053;-77
2023/03/05 17:12:46;;;;;;;0.00;0.00;;;;;;;5.77;100.00;101190.78;10406751;28;20053;-76
2023/03/05 17:17:48;;;;;;;0.10;0.10;;;;;;;5.61;100.00;101189.09;10388430;28;20050;-77
2023/03/05 17:22:49;;;;;;;0.25;0.25;;;;;;;5.17;100.00;101181.78;10438546;28;20049;-77
2023/03/05 17:27:51;;;;;;;0.10;0.05;;;;;;;5.16;100.00;101174.94;10440320;28;20488;-77
2023/03/05 17:32:52;;;;;;;0.08;0.08;;;;;;;5.02;100.00;101166.56;10424191;28;20073;-77
2023/03/05 17:37:54;;;;;;;0.00;0.00;;;;;;;5.38;100.00;101174.38;10422685;28;20065;-77
2023/03/05 17:42:56;;;;;;;0.00;0.00;;;;;;;5.28;100.00;101173.81;10431944;28;20052;-76
2023/03/05 17:47:57;;;;;;;0.15;0.15;;;;;;;4.95;100.00;101159.38;10418201;28;20444;-76
2023/03/05 17:52:59;;;;;;;0.10;0.10;;;;;;;4.95;100.00;101154.28;10438983;28;20065;-77
2023/03/05 17:58:01;;;;;;;0.00;0.00;;;;;;;4.93;100.00;101160.97;10425221;28;20045;-77
2023/03/05 18:03:03;;;;;;;0.00;0.00;;;;;;;4.32;100.00;101145.78;10418777;28;20045;-77
2023/03/05 18:08:05;;;;;;;0.40;0.30;;;;;;;4.34;100.00;101117.00;10417639;28;20048;-76
2023/03/05 18:13:07;;;;;;;0.22;0.22;;;;;;;4.38;100.00;101112.94;10416136;28;20072;-77
2023/03/05 18:18:08;;;;;;;0.28;0.20;;;;;;;4.62;100.00;101108.28;10406762;28;20103;-77
2023/03/05 18:23:11;;;;;;;0.13;0.13;;;;;;;5.03;100.00;101122.31;10415752;28;20073;-76
2023/03/05 18:28:14;;;;;;;0.00;0.00;;;;;;;5.25;100.00;101128.53;10416034;28;20080;-76
2023/03/05 18:33:20;;;;;;;0.05;0.05;;;;;;;5.47;100.00;101130.50;10416703;28;20045;-76
2023/03/05 18:38:24;;;;;;;0.00;0.00;;;;;;;5.22;100.00;101126.69;10413782;28;20157;-75
2023/03/05 18:43:26;;;;;;;0.20;0.10;;;;;;;5.28;100.00;101121.03;10406675;28;20132;-76
2023/03/05 18:48:28;;;;;;;0.00;0.00;;;;;;;5.27;100.00;101119.28;10403982;28;20088;-76
2023/03/05 18:53:29;;;;;;;0.20;0.20;;;;;;;5.14;100.00;101112.66;10410188;28;20408;-76
2023/03/05 18:58:31;;;;;;;0.45;0.43;;;;;;;5.18;100.00;101095.81;10417595;28;20049;-76
2023/03/05 19:03:32;;;;;;;0.13;0.00;;;;;;;5.06;100.00;101090.97;10407030;28;20052;-76
2023/03/05 19:08:34;;;;;;;0.22;0.20;;;;;;;5.01;100.00;101088.19;10408332;28;20053;-77
2023/03/05 19:13:42;;;;;;;0.20;0.20;;;;;;;5.29;100.00;101088.72;10412575;28;20562;-78
2023/03/05 19:19:41;;;;;;;1.55;0.88;;;;;;;5.06;100.00;101086.75;10426706;28;20041;-76
2023/03/05 19:24:22;;;;;;;0.52;0.35;;;;;;;4.93;100.00;101075.00;10410062;28;20514;-76
2023/03/05 19:29:26;;;;;;;0.00;0.00;;;;;;;4.89;100.00;101067.13;10409999;28;20481;-77
2023/03/05 19:34:28;;;;;;;0.00;0.00;;;;;;;5.13;100.00;101064.06;10412406;28;20049;-76
2023/03/05 19:39:30;;;;;;;0.10;0.10;;;;;;;5.13;100.00;101066.63;10407221;28;20052;-76
2023/03/05 19:44:32;;;;;;;1.08;0.22;;;;;;;5.03;100.00;101063.59;10414416;28;20554;-76
2023/03/05 19:49:34;;;;;;;0.13;0.13;;;;;;;5.01;100.00;101046.44;10413153;28;20473;-77
2023/03/05 19:54:36;;;;;;;0.30;0.30;;;;;;;5.01;100.00;101046.44;10410208;28;20143;-76
2023/03/05 19:59:38;;;;;;;0.00;0.00;;;;;;;5.02;100.00;101038.88;10410812;28;20042;-76
2023/03/05 20:04:39;;;;;;;0.00;0.00;;;;;;;5.01;100.00;101037.13;10409648;28;20554;-76
2023/03/05 20:09:41;;;;;;;0.00;0.00;;;;;;;4.93;100.00;101030.75;10413405;28;20164;-76
2023/03/05 20:14:43;;;;;;;0.10;0.10;;;;;;;5.00;100.00;101024.25;10410368;28;20064;-76
2023/03/05 20:19:44;;;;;;;0.10;0.10;;;;;;;5.05;100.00;101028.81;10412237;28;20052;-76
2023/03/05 20:24:46;;;;;;;0.00;0.00;;;;;;;4.93;100.00;101033.28;10403593;28;20103;-76
2023/03/05 20:29:47;;;;;;;0.17;0.17;;;;;;;5.07;100.00;101027.22;10394492;28;20488;-76
2023/03/05 20:34:50;;;;;;;0.15;0.15;;;;;;;5.03;100.00;101019.31;10414571;28;20049;-78
2023/03/05 20:39:51;;;;;;;0.10;0.10;;;;;;;5.14;100.00;101022.41;10408828;28;20539;-77
2023/03/05 20:44:53;;;;;;;0.30;0.20;;;;;;;4.79;100.00;101011.28;10410042;28;20057;-77
2023/03/05 20:49:54;;;;;;;0.00;0.00;;;;;;;4.83;100.00;101001.31;10410492;28;20049;-77
2023/03/05 20:54:57;;;;;;;0.10;0.10;;;;;;;4.75;100.00;100993.25;10425923;28;20053;-77
2023/03/05 20:59:59;;;;;;;0.30;0.28;;;;;;;4.95;100.00;100990.84;10393008;28;20492;-77
2023/03/05 21:05:00;;;;;;;0.00;0.00;;;;;;;4.95;100.00;100990.84;10415793;28;20068;-77
2023/03/05 21:10:02;;;;;;;0.10;0.10;;;;;;;4.88;100.00;100984.56;10410047;28;20053;-77
2023/03/05 21:15:05;;;;;;;0.00;0.00;;;;;;;4.81;100.00;100976.50;10430360;28;20390;-77
2023/03/05 21:20:10;;;;;;;0.30;0.30;;;;;;;4.62;100.00;100974.72;10416332;28;20103;-77
2023/03/05 21:25:20;;;;;;;0.10;0.10;;;;;;;4.43;100.00;100961.84;10420924;28;20042;-77
2023/03/05 21:30:30;;;;;;;0.30;0.30;;;;;;;4.19;100.00;100941.06;10421781;28;20042;-77
2023/03/05 21:35:33;;;;;;;0.00;0.00;;;;;;;4.12;100.00;100931.34;10404422;28;20045;-77
2023/03/05 21:40:42;;;;;;;0.00;0.00;;;;;;;4.07;100.00;100920.88;10426078;28;20038;-76
2023/03/05 21:45:47;;;;;;;0.00;0.00;;;;;;;4.42;100.00;100909.09;10409301;28;20530;-77
2023/03/05 21:50:50;;;;;;;0.25;0.25;;;;;;;4.14;100.00;100919.56;10380142;28;20059;-77
2023/03/05 21:56:20;;;;;;;0.00;0.00;;;;;;;4.01;100.00;100909.50;10407308;28;20052;-77
2023/03/05 22:01:22;;;;;;;;;;;;;;;4.03;100.00;100883.28;10386733;28;20045;-77
2023/03/05 22:06:24;;;;;;;0.00;0.00;;;;;;;4.06;100.00;100888.53;10409774;28;19956;-77
2023/03/05 22:11:25;;;;;;;0.00;0.00;;;;;;;4.07;100.00;100876.69;10410235;28;20107;-77
2023/03/05 22:16:27;;;;;;;0.00;0.00;;;;;;;3.82;100.00;100870.28;10409532;28;20061;-77
2023/03/05 22:21:29;;;;;;;0.10;0.10;;;;;;;3.84;100.00;100858.50;10414717;28;20512;-77
2023/03/05 22:26:37;;;;;;;0.00;0.00;;;;;;;3.77;100.00;100857.31;10416446;28;20621;-77
2023/03/05 22:31:39;;;;;;;0.00;0.00;;;;;;;3.68;100.00;100844.09;10397024;28;20053;-77
2023/03/05 22:36:41;;;;;;;0.10;0.10;;;;;;;3.79;100.00;100835.34;10411493;28;20048;-77
2023/03/05 22:41:42;;;;;;;0.20;0.20;;;;;;;3.84;100.00;100838.13;10398297;28;20048;-77
2023/03/05 22:46:44;;;;;;;0.00;0.00;;;;;;;3.66;100.00;100822.75;10417708;28;20460;-76
2023/03/05 22:51:45;;;;;;;0.40;0.32;;;;;;;3.71;100.00;100816.22;10413073;28;20050;-76
2023/03/05 22:56:47;;;;;;;0.00;0.00;;;;;;;3.76;100.00;100817.31;10416893;28;20084;-78
2023/03/05 23:01:48;;;;;;;0.00;0.00;;;;;;;4.03;100.00;100813.56;10413862;28;20045;-76
2023/03/05 23:06:50;;;;;;;0.00;0.00;;;;;;;3.80;100.00;100806.50;10403883;28;20540;-76
2023/03/05 23:11:52;;;;;;;0.00;0.00;;;;;;;3.52;100.00;100794.00;10421367;28;20050;-76
2023/03/05 23:16:53;;;;;;;0.10;0.10;;;;;;;3.61;100.00;100788.53;10413020;28;20049;-76